createdAt,value
2022-08-16T00:02:43.118Z,89.80
2022-08-16T00:07:44.991Z,90.00
2022-08-16T00:12:43.966Z,90.00
2022-08-16T00:17:56.504Z,89.70
2022-08-16T00:22:55.426Z,89.70
2022-08-16T00:27:54.151Z,89.50
2022-08-16T00:32:58.548Z,89.40
2022-08-16T00:37:59.478Z,89.70
2022-08-16T00:42:58.464Z,90.00
2022-08-16T00:47:58.054Z,90.00
2022-08-16T00:52:56.400Z,90.10
2022-08-16T00:57:58.621Z,90.20
2022-08-16T01:03:02.127Z,90.10
2022-08-16T01:08:05.209Z,90.20
2022-08-16T01:13:26.749Z,90.00
2022-08-16T01:18:40.508Z,90.10
2022-08-16T01:24:01.383Z,90.30
2022-08-16T01:29:04.435Z,90.20
2022-08-16T01:34:02.830Z,90.50
2022-08-16T01:39:13.029Z,90.50
2022-08-16T01:44:12.787Z,90.60
2022-08-16T01:49:21.381Z,90.30
2022-08-16T01:54:30.624Z,90.80
2022-08-16T01:59:30.672Z,90.60
2022-08-16T02:04:49.627Z,90.70
2022-08-16T02:09:59.040Z,90.90
2022-08-16T02:15:10.548Z,91.00
2022-08-16T02:20:11.541Z,90.90
2022-08-16T02:25:14.779Z,91.10
2022-08-16T02:30:37.473Z,91.30
2022-08-16T02:35:54.063Z,91.20
2022-08-16T02:41:00.634Z,91.10
2022-08-16T02:46:02.391Z,91.10
2022-08-16T02:51:11.224Z,91.20
2022-08-16T02:56:15.278Z,91.20
2022-08-16T03:01:24.836Z,91.30
2022-08-16T03:06:41.392Z,91.40
2022-08-16T03:11:52.326Z,91.70
2022-08-16T03:16:58.566Z,91.40
2022-08-16T03:21:58.726Z,91.40
2022-08-16T03:27:00.381Z,91.60
2022-08-16T03:32:02.507Z,91.70
2022-08-16T03:37:03.690Z,91.60
2022-08-16T03:42:09.717Z,91.80
2022-08-16T03:47:10.037Z,91.80
2022-08-16T03:52:09.833Z,91.90
2022-08-16T03:57:11.376Z,91.80
2022-08-16T04:02:22.303Z,91.80
2022-08-16T04:07:33.469Z,91.80
2022-08-16T04:12:53.414Z,91.80
2022-08-16T04:17:54.885Z,92.00
2022-08-16T04:22:53.672Z,91.90
2022-08-16T04:27:55.982Z,91.60
2022-08-16T04:32:55.769Z,91.60
2022-08-16T04:37:55.745Z,91.70
2022-08-16T04:43:00.650Z,91.70
2022-08-16T04:48:01.115Z,91.90
2022-08-16T04:53:06.756Z,91.80
2022-08-16T04:58:44.723Z,91.90
2022-08-16T05:03:29.867Z,92.00
2022-08-16T05:08:31.160Z,92.00
2022-08-16T05:13:41.717Z,92.20
2022-08-16T05:18:43.929Z,92.20
2022-08-16T05:23:45.480Z,92.20
2022-08-16T05:28:57.779Z,92.20
2022-08-16T05:33:56.300Z,92.20
2022-08-16T05:38:56.490Z,92.30
2022-08-16T05:44:01.274Z,92.30
2022-08-16T05:49:10.667Z,92.70
2022-08-16T05:54:17.352Z,92.80
2022-08-16T05:59:27.536Z,93.10
2022-08-16T06:04:35.384Z,93.30
2022-08-16T06:09:43.374Z,93.20
2022-08-16T06:14:45.973Z,93.30
2022-08-16T06:19:44.774Z,93.50
2022-08-16T06:24:53.521Z,93.40
2022-08-16T06:29:55.747Z,93.20
2022-08-16T06:34:57.257Z,93.40
2022-08-16T06:40:02.628Z,93.40
2022-08-16T06:45:09.585Z,93.40
2022-08-16T06:50:28.427Z,93.30
2022-08-16T06:55:34.370Z,93.40
2022-08-16T07:00:39.363Z,93.30
2022-08-16T07:05:43.036Z,93.50
2022-08-16T07:10:56.568Z,93.60
2022-08-16T07:15:59.386Z,93.40
2022-08-16T07:21:02.207Z,93.40
2022-08-16T07:26:03.642Z,93.50
2022-08-16T07:31:03.454Z,93.80
2022-08-16T07:36:06.336Z,93.80
2022-08-16T07:41:10.059Z,94.20
2022-08-16T07:46:37.848Z,93.60
2022-08-16T07:51:42.430Z,93.50
2022-08-16T07:56:41.696Z,93.40
2022-08-16T08:01:41.362Z,93.40
2022-08-16T08:06:41.868Z,93.20
2022-08-16T08:12:00.703Z,92.90
2022-08-16T08:17:08.602Z,92.30
2022-08-16T08:22:09.395Z,92.20
2022-08-16T08:27:23.861Z,92.00
2022-08-16T08:32:57.087Z,91.90
2022-08-16T08:37:54.068Z,91.60
2022-08-16T08:43:00.412Z,91.30
2022-08-16T08:48:02.115Z,90.90
2022-08-16T08:53:06.448Z,90.80
2022-08-16T08:58:05.775Z,90.60
2022-08-16T09:10:20.865Z,90.10
2022-08-16T09:15:21.725Z,90.10
2022-08-16T09:20:23.535Z,89.70
2022-08-16T09:25:25.854Z,89.20
2022-08-16T09:30:34.749Z,88.20
2022-08-16T09:35:42.563Z,87.60
2022-08-16T09:47:13.433Z,85.60
2022-08-16T09:52:12.048Z,85.60
2022-08-16T09:57:12.132Z,85.90
2022-08-16T10:02:26.135Z,86.20
2022-08-16T10:07:44.472Z,85.50
2022-08-16T10:13:01.013Z,85.50
2022-08-16T10:18:02.536Z,85.00
2022-08-16T10:30:00.732Z,83.20
2022-08-16T10:35:52.484Z,80.00
2022-08-16T10:40:50.775Z,81.40
2022-08-16T10:46:00.013Z,82.00
2022-08-16T10:50:59.757Z,81.70
2022-08-16T10:56:01.282Z,81.60
2022-08-16T11:01:24.997Z,78.50
2022-08-16T11:06:21.457Z,77.00
2022-08-16T11:11:26.239Z,76.90
2022-08-16T11:17:02.251Z,77.50
2022-08-16T11:27:24.103Z,76.20
2022-08-16T11:32:29.730Z,76.40
2022-08-16T11:38:04.419Z,77.00
2022-08-16T11:42:47.000Z,75.00
2022-08-16T11:47:48.074Z,72.50
2022-08-16T11:52:46.831Z,74.90
2022-08-16T11:57:45.111Z,70.30
2022-08-16T12:02:45.977Z,73.60
2022-08-16T12:07:47.591Z,72.00
2022-08-16T12:12:47.746Z,70.50
2022-08-16T12:17:46.075Z,72.50
2022-08-16T12:22:44.386Z,69.00
2022-08-16T12:27:47.230Z,68.70
2022-08-16T12:32:56.751Z,67.60
2022-08-16T12:37:57.240Z,67.70
2022-08-16T12:42:59.720Z,66.00
2022-08-16T12:48:33.464Z,66.30
2022-08-16T12:53:34.629Z,66.20
2022-08-16T12:58:49.081Z,65.80
2022-08-16T13:03:49.468Z,66.40
2022-08-16T13:08:55.524Z,66.00
2022-08-16T13:13:58.353Z,66.10
2022-08-16T13:18:56.539Z,70.10
2022-08-16T13:23:55.522Z,73.40
2022-08-16T13:28:54.345Z,73.50
2022-08-16T13:33:54.481Z,75.20
2022-08-16T13:39:59.608Z,77.50
2022-08-16T13:44:58.648Z,75.40
2022-08-16T13:49:58.288Z,76.00
2022-08-16T13:54:57.203Z,76.40
2022-08-16T13:59:57.588Z,76.10
2022-08-16T14:05:02.807Z,76.90
2022-08-16T14:10:03.912Z,75.10
2022-08-16T14:15:02.861Z,74.10
2022-08-16T14:20:02.591Z,73.00
2022-08-16T14:25:03.017Z,72.50
2022-08-16T14:30:02.099Z,70.40
2022-08-16T14:35:04.077Z,71.10
2022-08-16T14:40:03.339Z,71.00
2022-08-16T14:45:01.767Z,71.00
2022-08-16T14:49:59.976Z,70.90
2022-08-16T14:54:59.598Z,71.50
2022-08-16T15:00:01.978Z,71.20
2022-08-16T15:05:05.582Z,70.20
2022-08-16T15:10:06.581Z,70.10
2022-08-16T15:15:12.366Z,69.60
2022-08-16T15:20:15.777Z,70.20
2022-08-16T15:25:20.493Z,69.80
2022-08-16T15:30:59.724Z,71.30
2022-08-16T15:35:42.507Z,75.30
2022-08-16T15:40:58.470Z,78.70
2022-08-16T15:46:11.058Z,79.30
2022-08-16T15:51:09.768Z,79.90
2022-08-16T15:56:09.538Z,81.10
2022-08-16T16:01:11.938Z,82.20
2022-08-16T16:06:10.946Z,80.80
2022-08-16T16:11:12.621Z,79.90
2022-08-16T16:16:16.382Z,80.70
2022-08-16T16:21:53.856Z,81.10
2022-08-16T16:27:18.713Z,79.50
2022-08-16T16:32:34.153Z,79.60
2022-08-16T16:37:33.166Z,80.40
2022-08-16T16:42:35.542Z,80.00
2022-08-16T16:47:42.520Z,78.50
2022-08-16T16:52:45.074Z,79.10
2022-08-16T16:58:03.153Z,77.90
2022-08-16T17:03:01.704Z,77.00
2022-08-16T17:08:01.657Z,76.50
2022-08-16T17:13:05.375Z,76.90
2022-08-16T17:19:14.412Z,76.10
2022-08-16T17:23:23.681Z,76.10
2022-08-16T17:28:58.547Z,76.10
2022-08-16T17:33:59.971Z,76.60
2022-08-16T17:39:03.782Z,76.60
2022-08-16T17:44:03.798Z,76.50
2022-08-16T17:49:02.013Z,76.50
2022-08-16T17:54:00.189Z,76.50
2022-08-16T17:58:58.310Z,76.70
2022-08-16T18:04:07.036Z,76.50
2022-08-16T18:09:08.946Z,77.30
2022-08-16T18:14:08.851Z,77.30
2022-08-16T18:19:08.665Z,77.20
2022-08-16T18:24:07.122Z,77.60
2022-08-16T18:29:05.809Z,77.40
2022-08-16T18:34:04.201Z,77.40
2022-08-16T18:39:04.279Z,77.30
2022-08-16T18:44:22.707Z,77.20
2022-08-16T18:49:21.058Z,78.30
2022-08-16T18:54:20.779Z,78.40
2022-08-16T18:59:19.307Z,78.60
2022-08-16T19:04:55.502Z,79.80
2022-08-16T19:09:38.098Z,79.30
2022-08-16T19:14:36.337Z,80.10
2022-08-16T19:19:34.476Z,79.90
2022-08-16T19:24:32.668Z,81.00
2022-08-16T19:29:32.313Z,81.70
2022-08-16T19:34:30.927Z,81.40
2022-08-16T19:39:32.558Z,81.50
2022-08-16T19:44:32.457Z,81.60
2022-08-16T19:49:30.666Z,82.50
2022-08-16T19:54:28.862Z,82.40
2022-08-16T19:59:42.036Z,82.60
2022-08-16T20:04:40.288Z,82.80
2022-08-16T20:09:38.892Z,82.60
2022-08-16T20:14:37.073Z,82.90
2022-08-16T20:19:40.340Z,82.80
2022-08-16T20:24:38.786Z,83.20
2022-08-16T20:29:38.659Z,83.60
2022-08-16T20:34:38.535Z,83.60
2022-08-16T20:39:38.756Z,83.80
2022-08-16T20:44:36.978Z,83.70
2022-08-16T20:49:35.186Z,83.90
2022-08-16T20:54:34.662Z,83.80
2022-08-16T20:59:32.916Z,83.30
2022-08-16T21:05:40.722Z,83.30
2022-08-16T21:10:40.221Z,83.30
2022-08-16T21:15:38.394Z,85.40
2022-08-16T21:20:36.673Z,85.30
2022-08-16T21:25:36.359Z,85.50
2022-08-16T21:30:40.049Z,86.00
2022-08-16T21:35:39.146Z,86.20
2022-08-16T21:40:40.237Z,86.20
2022-08-16T21:45:41.232Z,86.50
2022-08-16T21:50:41.453Z,86.40
2022-08-16T21:55:40.913Z,86.10
2022-08-16T22:00:43.567Z,86.70
2022-08-16T22:05:45.184Z,86.80
2022-08-16T22:11:06.371Z,87.10
2022-08-16T22:16:07.697Z,86.90
2022-08-16T22:21:06.074Z,87.30
2022-08-16T22:26:04.642Z,87.20
2022-08-16T22:31:03.089Z,87.50
2022-08-16T22:36:05.166Z,87.90
2022-08-16T22:41:05.153Z,88.10
2022-08-16T22:46:03.396Z,88.00
2022-08-16T22:51:03.840Z,87.80
2022-08-16T22:56:02.104Z,89.20
2022-08-16T23:01:00.371Z,90.00
2022-08-16T23:06:00.814Z,90.00
2022-08-16T23:11:00.516Z,90.10
2022-08-16T23:16:02.177Z,90.10
2022-08-16T23:21:03.487Z,90.30
2022-08-16T23:26:44.500Z,90.20
2022-08-16T23:31:23.643Z,90.10
2022-08-16T23:36:21.864Z,90.40
2022-08-16T23:41:21.510Z,90.30
2022-08-16T23:46:20.521Z,90.30
2022-08-16T23:51:19.206Z,90.20
2022-08-16T23:56:20.798Z,90.20
